Time;durP1;ratioP1;P1;durP2;ratioP2;P2;SDS_P1;SDS_P2;PMS_P1;PMS_P2;Temp;Humidity;BMP_temperature;BMP_pressure;BME280_temperature;BME280_humidity;BME280_pressure;Samples;Min_cycle;Max_cycle;Signal;HPM_P1;HPM_P2
2023/05/25 00:00:40;;;;;;;;;;;8.70;99.90;;;;;;5066823;28;19924;-78
2023/05/25 00:03:07;;;;;;;;;;;8.70;99.90;;;;;;5067093;28;19927;-78
2023/05/25 00:05:32;;;;;;;;;;;8.60;99.90;;;;;;5083333;28;20542;-78
2023/05/25 00:08:00;;;;;;;;;;;8.60;99.90;;;;;;5086097;28;19927;-78
2023/05/25 00:10:25;;;;;;;;;;;8.70;99.90;;;;;;5084693;28;19974;-78
2023/05/25 00:12:51;;;;;;;;;;;8.60;99.90;;;;;;5100427;28;19924;-78
2023/05/25 00:15:17;;;;;;;;;;;8.60;99.90;;;;;;5083435;28;19934;-78
2023/05/25 00:17:42;;;;;;;;;;;8.60;99.90;;;;;;5062716;28;19986;-78
2023/05/25 00:20:08;;;;;;;;;;;8.60;99.90;;;;;;5115168;28;19924;-78
2023/05/25 00:22:34;;;;;;;;;;;8.60;99.90;;;;;;5065100;28;20351;-78
2023/05/25 00:25:00;;;;;;;;;;;8.50;99.90;;;;;;5079063;28;19931;-78
2023/05/25 00:27:26;;;;;;;;;;;8.50;99.90;;;;;;5070651;28;20325;-78
2023/05/25 00:29:51;;;;;;;;;;;8.50;99.90;;;;;;5086586;28;19966;-78
2023/05/25 00:32:17;;;;;;;;;;;8.50;99.90;;;;;;5104996;28;19928;-78
2023/05/25 00:34:43;;;;;;;;;;;8.50;99.90;;;;;;5102568;28;19928;-78
2023/05/25 00:37:08;;;;;;;;;;;8.50;99.90;;;;;;5087515;28;20386;-78
2023/05/25 00:39:34;;;;;;;;;;;8.50;99.90;;;;;;5065505;28;19963;-77
2023/05/25 00:42:01;;;;;;;;;;;8.40;99.90;;;;;;5063054;28;19928;-78
2023/05/25 00:44:27;;;;;;;;;;;8.30;99.90;;;;;;5114211;28;19934;-78
2023/05/25 00:46:52;;;;;;;;;;;8.30;99.90;;;;;;5103232;28;20117;-78
2023/05/25 00:49:19;;;;;;;;;;;8.30;99.90;;;;;;5087841;28;19928;-77
2023/05/25 00:51:45;;;;;;;;;;;8.30;99.90;;;;;;5081914;28;19928;-78
2023/05/25 00:54:13;;;;;;;;;;;8.30;99.90;;;;;;5076996;28;20454;-78
2023/05/25 00:56:39;;;;;;;;;;;8.20;99.90;;;;;;5086101;28;19923;-78
2023/05/25 00:59:05;;;;;;;;;;;8.20;99.90;;;;;;5070379;28;19924;-78
2023/05/25 01:01:38;;;;;;;;;;;8.10;99.90;;;;;;5069793;28;19963;-77
2023/05/25 01:04:08;;;;;;;;;;;8.10;99.90;;;;;;5085691;28;19924;-78
2023/05/25 01:06:35;;;;;;;;;;;8.10;99.90;;;;;;5070808;28;19939;-77
2023/05/25 01:09:03;;;;;;;;;;;8.10;99.90;;;;;;5085205;28;19924;-77
2023/05/25 01:11:33;;;;;;;;;;;8.00;99.90;;;;;;5086844;28;19923;-77
2023/05/25 01:13:59;;;;;;;;;;;8.00;99.90;;;;;;5085559;28;19931;-77
2023/05/25 01:16:25;;;;;;;;;;;8.00;99.90;;;;;;5086678;28;19924;-78
2023/05/25 01:18:51;;;;;;;;;;;8.10;99.90;;;;;;5068642;28;19924;-77
2023/05/25 01:21:40;;;;;;;;;;;8.00;99.90;;;;;;5085614;28;19983;-77
2023/05/25 01:24:12;;;;;;;;;;;8.00;99.90;;;;;;5089399;28;20374;-77
2023/05/25 01:26:41;;;;;;;;;;;8.00;99.90;;;;;;5085453;28;20018;-77
2023/05/25 01:29:07;;;;;;;;;;;8.00;99.90;;;;;;5086401;28;19927;-78
2023/05/25 01:31:34;;;;;;;;;;;8.00;99.90;;;;;;5069276;28;19924;-77
2023/05/25 01:33:59;;;;;;;;;;;8.00;99.90;;;;;;5124349;27;19946;-77
2023/05/25 01:36:25;;;;;;;;;;;7.90;99.90;;;;;;5100942;28;19923;-78
2023/05/25 01:38:51;;;;;;;;;;;7.90;99.90;;;;;;5084954;28;19955;-77
2023/05/25 01:41:16;;;;;;;;;;;7.90;99.90;;;;;;5064446;28;19988;-77
2023/05/25 01:43:42;;;;;;;;;;;7.80;99.90;;;;;;5105761;28;19931;-78
2023/05/25 01:46:12;;;;;;;;;;;7.80;99.90;;;;;;5086231;28;19928;-78
2023/05/25 01:48:49;;;;;;;;;;;7.80;99.90;;;;;;5085795;28;19928;-78
2023/05/25 01:51:25;;;;;;;;;;;7.80;99.90;;;;;;5085317;28;19924;-77
2023/05/25 01:53:59;;;;;;;;;;;7.80;99.90;;;;;;5079597;28;19924;-77
2023/05/25 01:56:26;;;;;;;;;;;7.70;99.90;;;;;;5078723;28;19980;-78
2023/05/25 01:58:53;;;;;;;;;;;7.80;99.90;;;;;;5079811;28;19944;-78
2023/05/25 02:01:19;;;;;;;;;;;7.80;99.90;;;;;;5068858;28;19989;-77
2023/05/25 02:03:47;;;;;;;;;;;7.80;99.90;;;;;;5064722;28;19931;-77
2023/05/25 02:06:14;;;;;;;;;;;7.80;99.90;;;;;;5065896;28;19934;-77
2023/05/25 02:08:39;;;;;;;;;;;7.80;99.90;;;;;;5064341;28;19924;-78
2023/05/25 02:11:05;;;;;;;;;;;7.80;99.90;;;;;;5061905;28;19946;-77
2023/05/25 02:13:31;;;;;;;;;;;7.80;99.90;;;;;;5079461;28;19931;-77
2023/05/25 02:15:56;;;;;;;;;;;7.80;99.90;;;;;;5052687;28;20454;-78
2023/05/25 02:18:22;;;;;;;;;;;7.80;99.90;;;;;;5060776;28;20329;-78
2023/05/25 02:20:48;;;;;;;;;;;7.70;99.90;;;;;;5050264;28;19929;-78
2023/05/25 02:23:13;;;;;;;;;;;7.80;99.90;;;;;;5059910;28;19931;-77
2023/05/25 02:25:41;;;;;;;;;;;7.80;99.90;;;;;;5064247;28;19993;-78
2023/05/25 02:28:06;;;;;;;;;;;7.80;99.90;;;;;;5082164;28;19924;-77
2023/05/25 02:30:32;;;;;;;;;;;7.80;99.90;;;;;;5063606;28;19924;-77
2023/05/25 02:32:57;;;;;;;;;;;7.80;99.90;;;;;;5051733;28;19925;-78
2023/05/25 02:35:23;;;;;;;;;;;7.80;99.90;;;;;;5077203;28;19928;-77
2023/05/25 02:37:49;;;;;;;;;;;7.70;99.90;;;;;;5049259;28;20276;-77
2023/05/25 02:40:16;;;;;;;;;;;7.70;99.90;;;;;;5075408;28;19946;-77
2023/05/25 02:42:41;;;;;;;;;;;7.70;99.90;;;;;;5063896;28;19924;-77
2023/05/25 02:45:09;;;;;;;;;;;7.70;99.90;;;;;;5065425;28;19953;-78
2023/05/25 02:47:35;;;;;;;;;;;7.70;99.90;;;;;;5063515;28;19924;-77
2023/05/25 02:50:01;;;;;;;;;;;7.70;99.90;;;;;;5064798;28;19939;-77
2023/05/25 02:52:29;;;;;;;;;;;7.60;99.90;;;;;;5063609;28;19928;-77
2023/05/25 02:54:55;;;;;;;;;;;7.60;99.90;;;;;;5064665;28;19931;-77
2023/05/25 02:57:22;;;;;;;;;;;7.60;99.90;;;;;;5064793;28;19928;-77
2023/05/25 02:59:48;;;;;;;;;;;7.60;99.90;;;;;;5047249;28;19928;-77
2023/05/25 03:02:13;;;;;;;;;;;7.60;99.90;;;;;;5061764;28;19932;-77
2023/05/25 03:04:40;;;;;;;;;;;7.60;99.90;;;;;;5075993;28;19928;-77
2023/05/25 03:07:06;;;;;;;;;;;7.60;99.90;;;;;;5061836;28;19924;-77
2023/05/25 03:09:32;;;;;;;;;;;7.60;99.90;;;;;;5076731;28;20297;-77
2023/05/25 03:11:57;;;;;;;;;;;7.70;99.90;;;;;;5074276;28;19924;-77
2023/05/25 03:14:23;;;;;;;;;;;7.70;99.90;;;;;;5054861;28;19932;-77
2023/05/25 03:16:48;;;;;;;;;;;7.70;99.90;;;;;;5040408;28;19935;-77
2023/05/25 03:19:14;;;;;;;;;;;7.70;99.90;;;;;;5078181;28;20372;-77
2023/05/25 03:21:39;;;;;;;;;;;7.60;99.90;;;;;;5059552;28;19932;-77
2023/05/25 03:24:05;;;;;;;;;;;7.60;99.90;;;;;;5061570;28;20015;-77
2023/05/25 03:26:31;;;;;;;;;;;7.60;99.90;;;;;;5074848;28;20292;-77
2023/05/25 03:28:57;;;;;;;;;;;7.60;99.90;;;;;;5077581;28;20346;-77
2023/05/25 03:31:22;;;;;;;;;;;7.60;99.90;;;;;;5077343;28;19939;-77
2023/05/25 03:33:48;;;;;;;;;;;7.60;99.90;;;;;;5059677;28;19964;-77
2023/05/25 03:36:16;;;;;;;;;;;7.60;99.90;;;;;;5061538;28;19971;-77
2023/05/25 03:38:42;;;;;;;;;;;7.60;99.90;;;;;;5060106;28;20372;-77
2023/05/25 03:41:08;;;;;;;;;;;7.60;99.90;;;;;;5061612;28;19963;-77
2023/05/25 03:43:33;;;;;;;;;;;7.60;99.90;;;;;;5079784;28;19925;-77
2023/05/25 03:45:59;;;;;;;;;;;7.60;99.90;;;;;;5081406;28;19970;-77
2023/05/25 03:48:25;;;;;;;;;;;7.70;99.90;;;;;;5047748;28;19924;-77
2023/05/25 03:50:50;;;;;;;;;;;7.70;99.90;;;;;;5077742;28;20292;-77
2023/05/25 03:53:16;;;;;;;;;;;7.70;99.90;;;;;;5073808;28;19985;-77
2023/05/25 03:55:42;;;;;;;;;;;7.70;99.90;;;;;;5063658;28;19924;-77
2023/05/25 03:58:10;;;;;;;;;;;7.70;99.90;;;;;;5064922;28;20011;-77
2023/05/25 04:00:36;;;;;;;;;;;7.70;99.90;;;;;;5079440;28;19924;-77
2023/05/25 04:03:02;;;;;;;;;;;7.80;99.90;;;;;;5080904;28;19931;-77
2023/05/25 04:05:28;;;;;;;;;;;7.80;99.90;;;;;;5047356;28;19925;-76
2023/05/25 04:07:54;;;;;;;;;;;7.80;99.90;;;;;;5080686;28;20376;-77
2023/05/25 04:10:20;;;;;;;;;;;7.80;99.90;;;;;;5081342;28;19935;-77
2023/05/25 04:12:45;;;;;;;;;;;7.80;99.90;;;;;;5063139;28;20194;-77
2023/05/25 04:15:13;;;;;;;;;;;7.80;99.90;;;;;;5048204;28;19929;-77
2023/05/25 04:17:39;;;;;;;;;;;7.80;99.90;;;;;;5059388;28;19928;-77
2023/05/25 04:20:05;;;;;;;;;;;7.90;99.90;;;;;;5065779;28;20716;-76
2023/05/25 04:22:32;;;;;;;;;;;7.90;99.90;;;;;;5063524;28;19924;-77
2023/05/25 04:24:57;;;;;;;;;;;8.00;99.90;;;;;;5066812;28;20395;-77
2023/05/25 04:27:25;;;;;;;;;;;8.00;99.90;;;;;;5058453;28;19935;-77
2023/05/25 04:29:52;;;;;;;;;;;8.10;99.90;;;;;;5062872;28;19924;-77
2023/05/25 04:32:20;;;;;;;;;;;8.20;99.90;;;;;;5064520;28;19988;-77
2023/05/25 04:34:47;;;;;;;;;;;8.40;99.90;;;;;;5079154;28;19928;-77
2023/05/25 04:37:12;;;;;;;;;;;8.50;99.90;;;;;;5047327;28;20001;-77
2023/05/25 04:39:38;;;;;;;;;;;8.50;99.90;;;;;;5079948;28;19924;-77
2023/05/25 04:42:04;;;;;;;;;;;8.60;99.90;;;;;;5077637;28;19989;-77
2023/05/25 04:44:31;;;;;;;;;;;8.70;99.90;;;;;;5064100;28;19967;-77
2023/05/25 04:46:58;;;;;;;;;;;8.70;99.90;;;;;;5079385;28;19939;-78
2023/05/25 04:49:25;;;;;;;;;;;8.80;99.90;;;;;;5047845;28;19984;-77
2023/05/25 04:51:51;;;;;;;;;;;8.90;99.90;;;;;;5062397;28;19976;-77
2023/05/25 04:54:16;;;;;;;;;;;9.10;99.90;;;;;;5063590;28;19925;-77
2023/05/25 04:56:42;;;;;;;;;;;9.20;99.90;;;;;;5045984;28;19925;-78
2023/05/25 04:59:08;;;;;;;;;;;9.40;99.90;;;;;;5046906;28;20020;-78
2023/05/25 05:01:39;;;;;;;;;;;9.50;99.90;;;;;;5063254;28;20007;-77
2023/05/25 05:04:08;;;;;;;;;;;9.70;99.90;;;;;;5078722;28;19935;-77
2023/05/25 05:06:33;;;;;;;;;;;9.90;99.90;;;;;;5097737;28;19932;-77
2023/05/25 05:09:00;;;;;;;;;;;10.20;99.90;;;;;;5061803;28;20074;-77
2023/05/25 05:11:26;;;;;;;;;;;10.60;99.90;;;;;;5063486;28;19924;-78
2023/05/25 05:13:52;;;;;;;;;;;11.10;99.90;;;;;;5062221;28;19935;-78
2023/05/25 05:16:17;;;;;;;;;;;11.60;99.90;;;;;;5079936;28;20407;-78
2023/05/25 05:18:43;;;;;;;;;;;12.10;99.90;;;;;;5076323;28;19925;-78
2023/05/25 05:21:09;;;;;;;;;;;12.50;99.90;;;;;;5069733;28;19924;-78
2023/05/25 05:23:35;;;;;;;;;;;12.90;99.90;;;;;;5063997;28;20127;-78
2023/05/25 05:26:03;;;;;;;;;;;13.30;99.90;;;;;;5075000;28;19924;-78
2023/05/25 05:28:29;;;;;;;;;;;13.60;99.90;;;;;;5077793;28;19925;-78
2023/05/25 05:30:55;;;;;;;;;;;13.80;99.90;;;;;;5061964;28;19935;-78
2023/05/25 05:33:22;;;;;;;;;;;14.10;99.90;;;;;;5077613;28;20346;-78
2023/05/25 05:35:48;;;;;;;;;;;14.30;99.90;;;;;;5063131;28;19925;-78
2023/05/25 05:38:14;;;;;;;;;;;14.50;99.90;;;;;;5062164;28;20406;-79
2023/05/25 05:40:40;;;;;;;;;;;14.70;99.90;;;;;;5076676;28;19928;-78
2023/05/25 05:43:05;;;;;;;;;;;14.90;99.90;;;;;;5053567;28;19964;-78
2023/05/25 05:45:31;;;;;;;;;;;15.20;99.90;;;;;;5062754;28;19924;-78
2023/05/25 05:47:56;;;;;;;;;;;15.40;99.90;;;;;;5061681;28;19933;-79
2023/05/25 05:50:22;;;;;;;;;;;15.60;99.90;;;;;;5062432;28;19931;-79
2023/05/25 05:52:48;;;;;;;;;;;15.70;99.90;;;;;;5075491;28;19925;-79
2023/05/25 05:55:13;;;;;;;;;;;15.90;99.90;;;;;;5072805;28;20465;-79
2023/05/25 05:57:39;;;;;;;;;;;16.10;99.90;;;;;;5076460;28;19935;-78
2023/05/25 06:00:05;;;;;;;;;;;16.30;99.90;;;;;;5069944;28;19946;-79
2023/05/25 06:02:31;;;;;;;;;;;16.40;99.90;;;;;;5063509;28;19928;-78
2023/05/25 06:04:57;;;;;;;;;;;16.60;99.90;;;;;;5044811;28;19955;-78
2023/05/25 06:07:22;;;;;;;;;;;16.70;99.90;;;;;;5079889;28;19987;-78
2023/05/25 06:09:48;;;;;;;;;;;16.90;99.90;;;;;;5079009;28;19924;-79
2023/05/25 06:12:13;;;;;;;;;;;17.10;99.90;;;;;;5075380;28;20490;-79
2023/05/25 06:14:39;;;;;;;;;;;17.20;99.90;;;;;;5058472;28;19932;-79
2023/05/25 06:17:04;;;;;;;;;;;17.10;99.90;;;;;;5074730;28;19929;-79
2023/05/25 06:19:30;;;;;;;;;;;17.10;99.90;;;;;;5056346;28;19986;-79
2023/05/25 06:21:56;;;;;;;;;;;17.20;99.90;;;;;;5060609;28;19925;-79
2023/05/25 06:24:21;;;;;;;;;;;17.40;99.90;;;;;;5075229;28;19955;-78
2023/05/25 06:26:47;;;;;;;;;;;17.50;99.90;;;;;;5077733;28;19944;-78
2023/05/25 06:29:13;;;;;;;;;;;17.50;99.90;;;;;;5075063;28;19974;-79
2023/05/25 06:31:38;;;;;;;;;;;17.80;99.90;;;;;;5057764;28;19925;-78
2023/05/25 06:34:04;;;;;;;;;;;18.00;99.90;;;;;;5060396;28;19931;-79
2023/05/25 06:36:31;;;;;;;;;;;18.00;99.90;;;;;;5075490;28;19964;-79
2023/05/25 06:38:56;;;;;;;;;;;17.90;99.90;;;;;;5079813;28;20291;-79
2023/05/25 06:41:22;;;;;;;;;;;17.70;99.90;;;;;;5075325;28;19980;-79
2023/05/25 06:43:48;;;;;;;;;;;17.70;99.90;;;;;;5091929;28;19924;-79
2023/05/25 06:46:16;;;;;;;;;;;17.90;99.90;;;;;;5061412;28;19935;-80
2023/05/25 06:48:42;;;;;;;;;;;18.00;99.90;;;;;;5078173;28;19929;-79
2023/05/25 06:51:07;;;;;;;;;;;18.30;99.90;;;;;;5077617;28;19971;-79
2023/05/25 06:53:33;;;;;;;;;;;18.30;99.90;;;;;;5061825;28;19939;-78
2023/05/25 06:55:59;;;;;;;;;;;18.10;99.90;;;;;;5073584;28;20000;-79
2023/05/25 06:58:24;;;;;;;;;;;17.50;99.90;;;;;;5104250;28;20050;-80
2023/05/25 07:00:50;;;;;;;;;;;16.90;99.90;;;;;;5093746;28;19928;-78
2023/05/25 07:03:15;;;;;;;;;;;16.40;99.90;;;;;;5073858;28;20011;-78
2023/05/25 07:05:41;;;;;;;;;;;16.10;99.90;;;;;;5074131;28;19924;-78
2023/05/25 07:08:07;;;;;;;;;;;15.90;99.90;;;;;;5073902;28;19933;-79
2023/05/25 07:10:33;;;;;;;;;;;15.70;99.90;;;;;;5062437;28;19936;-79
2023/05/25 07:12:58;;;;;;;;;;;15.70;99.90;;;;;;5056117;28;20556;-78
2023/05/25 07:15:24;;;;;;;;;;;15.50;99.90;;;;;;5045197;28;19924;-78
2023/05/25 07:17:49;;;;;;;;;;;15.40;99.90;;;;;;5059703;28;19932;-79
2023/05/25 07:20:15;;;;;;;;;;;15.40;99.90;;;;;;5060979;28;19988;-77
2023/05/25 07:22:42;;;;;;;;;;;15.50;99.90;;;;;;5077032;28;19929;-78
2023/05/25 07:25:08;;;;;;;;;;;15.60;99.90;;;;;;5077129;28;19955;-79
2023/05/25 07:27:34;;;;;;;;;;;15.80;99.90;;;;;;5061532;28;19924;-78
2023/05/25 07:30:00;;;;;;;;;;;15.90;99.90;;;;;;5075784;28;19928;-78
2023/05/25 07:32:26;;;;;;;;;;;15.80;99.90;;;;;;5077969;28;19947;-78
2023/05/25 07:34:51;;;;;;;;;;;16.00;99.90;;;;;;5075723;28;19925;-78
2023/05/25 07:37:17;;;;;;;;;;;16.10;99.90;;;;;;5077803;28;19928;-78
2023/05/25 07:39:42;;;;;;;;;;;16.00;99.90;;;;;;5060370;28;20010;-77
2023/05/25 07:42:09;;;;;;;;;;;15.90;99.90;;;;;;5064885;28;19928;-79
2023/05/25 07:44:35;;;;;;;;;;;15.90;99.90;;;;;;5070545;28;19931;-78
2023/05/25 07:47:00;;;;;;;;;;;15.90;99.90;;;;;;5059759;28;19924;-78
2023/05/25 07:49:26;;;;;;;;;;;15.90;99.90;;;;;;5075132;28;19931;-79
2023/05/25 07:51:52;;;;;;;;;;;16.00;99.90;;;;;;5104043;28;19924;-78
2023/05/25 07:54:17;;;;;;;;;;;15.80;99.90;;;;;;5044184;28;19928;-78
2023/05/25 07:56:43;;;;;;;;;;;15.80;99.90;;;;;;5076428;28;19924;-78
2023/05/25 07:59:09;;;;;;;;;;;15.80;99.90;;;;;;5073897;28;19956;-79
2023/05/25 08:01:35;;;;;;;;;;;15.90;99.90;;;;;;5050515;28;19929;-78
2023/05/25 08:04:01;;;;;;;;;;;16.10;99.90;;;;;;5062460;28;19991;-78
2023/05/25 08:06:26;;;;;;;;;;;16.20;99.90;;;;;;5050019;28;20019;-77
2023/05/25 08:08:52;;;;;;;;;;;16.30;99.90;;;;;;5074007;28;20279;-78
2023/05/25 08:11:23;;;;;;;;;;;16.30;99.90;;;;;;5060122;28;20381;-78
2023/05/25 08:13:49;;;;;;;;;;;16.30;99.90;;;;;;5062851;28;19946;-79
2023/05/25 08:16:15;;;;;;;;;;;16.20;99.90;;;;;;5063983;28;19924;-78
2023/05/25 08:18:43;;;;;;;;;;;16.10;99.90;;;;;;5047774;28;19956;-78
2023/05/25 08:21:08;;;;;;;;;;;16.00;99.90;;;;;;5072875;28;19950;-79
2023/05/25 08:23:34;;;;;;;;;;;16.10;99.90;;;;;;5064369;28;19924;-78
2023/05/25 08:25:59;;;;;;;;;;;16.10;99.90;;;;;;5050413;28;19929;-78
2023/05/25 08:28:25;;;;;;;;;;;16.20;99.90;;;;;;5079726;28;19941;-78
2023/05/25 08:30:50;;;;;;;;;;;16.40;99.90;;;;;;5052667;28;19971;-78
2023/05/25 08:33:16;;;;;;;;;;;16.50;99.90;;;;;;5079236;28;20298;-78
2023/05/25 08:35:42;;;;;;;;;;;16.70;99.90;;;;;;5066561;28;19946;-78
2023/05/25 08:38:08;;;;;;;;;;;16.80;99.90;;;;;;5050387;28;19934;-78
2023/05/25 08:40:33;;;;;;;;;;;16.90;99.90;;;;;;5067654;28;20375;-78
2023/05/25 08:42:59;;;;;;;;;;;16.80;99.90;;;;;;5066032;28;19924;-78
2023/05/25 08:45:25;;;;;;;;;;;16.90;99.90;;;;;;5051097;28;19931;-78
2023/05/25 08:47:52;;;;;;;;;;;16.70;99.90;;;;;;5066154;28;20306;-78
2023/05/25 08:50:18;;;;;;;;;;;16.60;99.90;;;;;;5067219;28;19952;-78
2023/05/25 08:52:45;;;;;;;;;;;16.80;99.90;;;;;;5066544;28;19924;-78
2023/05/25 08:55:11;;;;;;;;;;;17.10;99.90;;;;;;5066589;28;19930;-78
2023/05/25 08:57:56;;;;;;;;;;;17.30;99.90;;;;;;5067161;28;20019;-78
2023/05/25 09:00:28;;;;;;;;;;;17.20;99.90;;;;;;5099499;28;20290;-78
2023/05/25 09:02:58;;;;;;;;;;;17.10;99.90;;;;;;5083356;28;19928;-78
2023/05/25 09:05:26;;;;;;;;;;;16.90;99.90;;;;;;5079737;28;20195;-78
2023/05/25 09:07:55;;;;;;;;;;;16.70;99.90;;;;;;5082961;28;19924;-78
2023/05/25 09:10:21;;;;;;;;;;;16.60;99.90;;;;;;5067530;28;19924;-78
2023/05/25 09:12:47;;;;;;;;;;;16.50;99.90;;;;;;5057563;28;19928;-78
2023/05/25 09:15:13;;;;;;;;;;;16.40;99.90;;;;;;5050839;28;19928;-78
2023/05/25 09:17:40;;;;;;;;;;;16.30;99.90;;;;;;5074899;28;20003;-79
2023/05/25 09:20:07;;;;;;;;;;;16.20;99.90;;;;;;5066653;28;20007;-78
2023/05/25 09:22:34;;;;;;;;;;;16.10;99.90;;;;;;5065615;28;19978;-78
2023/05/25 09:25:01;;;;;;;;;;;16.00;99.90;;;;;;5066215;28;19978;-78
2023/05/25 09:27:26;;;;;;;;;;;15.90;99.90;;;;;;5083387;28;19925;-78
2023/05/25 09:29:52;;;;;;;;;;;15.90;99.90;;;;;;5065601;28;20011;-78
2023/05/25 09:32:18;;;;;;;;;;;15.80;99.90;;;;;;5066592;28;19928;-78
2023/05/25 09:34:44;;;;;;;;;;;15.80;99.90;;;;;;5064835;28;19924;-78
2023/05/25 09:37:11;;;;;;;;;;;15.90;99.90;;;;;;5082659;28;19924;-79
2023/05/25 09:39:36;;;;;;;;;;;16.00;99.90;;;;;;5052530;28;19925;-78
2023/05/25 09:42:02;;;;;;;;;;;16.00;99.90;;;;;;5097094;28;20064;-79
2023/05/25 09:44:27;;;;;;;;;;;16.00;99.90;;;;;;5099970;28;19936;-78
2023/05/25 09:46:53;;;;;;;;;;;16.00;99.90;;;;;;5099858;28;19991;-78
2023/05/25 09:49:19;;;;;;;;;;;16.00;99.90;;;;;;5083430;28;19934;-78
2023/05/25 09:51:46;;;;;;;;;;;16.00;99.90;;;;;;5098328;28;19924;-78
2023/05/25 09:54:12;;;;;;;;;;;15.90;99.90;;;;;;5082389;28;20019;-78
2023/05/25 09:56:37;;;;;;;;;;;15.80;99.90;;;;;;5053165;28;19928;-78
2023/05/25 09:59:03;;;;;;;;;;;15.80;99.90;;;;;;5063370;28;19924;-78
2023/05/25 10:01:30;;;;;;;;;;;15.90;99.90;;;;;;5082185;28;19928;-77
2023/05/25 10:03:58;;;;;;;;;;;15.90;99.90;;;;;;5064477;28;20399;-78
2023/05/25 10:06:26;;;;;;;;;;;16.00;99.90;;;;;;5066584;28;19924;-78
2023/05/25 10:08:56;;;;;;;;;;;16.10;99.90;;;;;;5064326;28;19983;-78
2023/05/25 10:11:23;;;;;;;;;;;16.40;99.90;;;;;;5049013;28;20188;-78
2023/05/25 10:13:49;;;;;;;;;;;16.90;99.90;;;;;;5064649;28;19987;-79
2023/05/25 10:16:17;;;;;;;;;;;17.30;99.90;;;;;;5065494;28;19928;-79
2023/05/25 10:19:05;;;;;;;;;;;17.40;98.20;;;;;;5065477;28;19985;-78
2023/05/25 10:21:32;;;;;;;;;;;17.40;97.30;;;;;;5053287;28;19963;-80
2023/05/25 10:24:07;;;;;;;;;;;17.30;95.20;;;;;;5065954;28;19932;-79
2023/05/25 10:26:35;;;;;;;;;;;17.20;94.70;;;;;;5064340;28;19971;-78
2023/05/25 10:29:03;;;;;;;;;;;17.30;95.00;;;;;;5065189;28;20375;-78
2023/05/25 10:31:30;;;;;;;;;;;17.50;96.60;;;;;;5065097;28;19928;-78
2023/05/25 10:33:57;;;;;;;;;;;17.60;97.30;;;;;;5063835;28;19924;-78
2023/05/25 10:36:23;;;;;;;;;;;17.80;96.70;;;;;;5082166;28;19924;-79
2023/05/25 10:38:50;;;;;;;;;;;17.90;95.30;;;;;;5063820;28;20368;-80
2023/05/25 10:41:16;;;;;;;;;;;17.90;91.90;;;;;;5053281;28;19924;-79
2023/05/25 10:43:42;;;;;;;;;;;17.70;91.60;;;;;;5061443;28;19986;-79
2023/05/25 10:46:08;;;;;;;;;;;17.80;92.40;;;;;;5064946;28;20399;-79
2023/05/25 10:48:38;;;;;;;;;;;17.90;92.30;;;;;;5057897;28;19935;-78
2023/05/25 10:51:03;;;;;;;;;;;18.10;94.70;;;;;;5063618;28;19931;-79
2023/05/25 10:53:29;;;;;;;;;;;18.50;90.80;;;;;;5048615;28;19924;-79
2023/05/25 10:55:58;;;;;;;;;;;18.80;90.00;;;;;;5063502;28;19954;-78
2023/05/25 10:58:25;;;;;;;;;;;19.10;91.00;;;;;;5064941;28;19924;-78
2023/05/25 11:01:01;;;;;;;;;;;19.30;83.30;;;;;;5063498;28;19928;-79
2023/05/25 11:03:42;;;;;;;;;;;19.20;81.90;;;;;;5064262;28;19924;-80
2023/05/25 11:06:09;;;;;;;;;;;18.90;82.00;;;;;;5058996;28;19929;-79
2023/05/25 11:08:54;;;;;;;;;;;18.70;80.60;;;;;;5056011;28;19975;-78
2023/05/25 11:11:21;;;;;;;;;;;18.80;84.90;;;;;;5064689;28;20958;-79
2023/05/25 11:13:48;;;;;;;;;;;19.10;84.00;;;;;;5063477;28;19925;-78
2023/05/25 11:16:18;;;;;;;;;;;19.40;81.60;;;;;;5047578;28;19931;-78
2023/05/25 11:18:45;;;;;;;;;;;19.50;87.00;;;;;;5064715;28;19924;-80
2023/05/25 11:21:14;;;;;;;;;;;19.60;77.70;;;;;;5063942;28;20351;-78
2023/05/25 11:23:51;;;;;;;;;;;19.70;80.60;;;;;;5064729;28;19924;-79
2023/05/25 11:26:19;;;;;;;;;;;19.50;76.30;;;;;;5063260;28;19930;-78
2023/05/25 11:28:45;;;;;;;;;;;19.30;77.30;;;;;;5063774;28;20015;-79
2023/05/25 11:31:12;;;;;;;;;;;19.30;78.50;;;;;;5089685;28;19924;-79
2023/05/25 11:33:38;;;;;;;;;;;19.40;83.30;;;;;;5063261;28;19985;-78
2023/05/25 11:36:04;;;;;;;;;;;19.50;76.80;;;;;;5064677;28;20356;-79
2023/05/25 11:38:30;;;;;;;;;;;19.40;79.40;;;;;;5058403;28;19925;-78
2023/05/25 11:40:56;;;;;;;;;;;19.20;73.90;;;;;;5081225;28;20015;-79
2023/05/25 11:43:23;;;;;;;;;;;19.20;73.60;;;;;;5079637;28;19928;-78
2023/05/25 11:46:01;;;;;;;;;;;19.30;77.80;;;;;;5080959;28;19953;-79
2023/05/25 11:48:27;;;;;;;;;;;19.30;80.70;;;;;;5064983;28;19994;-78
2023/05/25 11:51:05;;;;;;;;;;;19.30;80.20;;;;;;5046715;28;20407;-78
2023/05/25 11:53:31;;;;;;;;;;;19.40;76.70;;;;;;5058590;28;19931;-78
2023/05/25 11:55:57;;;;;;;;;;;19.30;73.80;;;;;;5076123;28;19928;-79
2023/05/25 11:58:22;;;;;;;;;;;19.20;75.00;;;;;;5089822;28;19935;-79
2023/05/25 12:00:48;;;;;;;;;;;19.20;77.50;;;;;;5063153;28;19980;-80
2023/05/25 12:03:30;;;;;;;;;;;19.20;71.70;;;;;;5048278;28;19928;-80
2023/05/25 12:05:56;;;;;;;;;;;19.30;71.10;;;;;;5062571;28;19929;-79
2023/05/25 12:08:35;;;;;;;;;;;19.50;76.50;;;;;;5073976;28;20527;-80
2023/05/25 12:11:01;;;;;;;;;;;19.70;78.00;;;;;;5067948;28;20378;-80
2023/05/25 12:13:26;;;;;;;;;;;19.50;71.10;;;;;;5067121;28;20293;-80
2023/05/25 12:15:59;;;;;;;;;;;19.40;71.30;;;;;;5067996;28;20015;-80
2023/05/25 12:18:27;;;;;;;;;;;19.50;72.20;;;;;;5102424;28;19924;-79
2023/05/25 12:20:54;;;;;;;;;;;19.60;75.50;;;;;;5055216;28;19951;-79
2023/05/25 12:23:20;;;;;;;;;;;19.50;74.70;;;;;;5065741;28;20393;-79
2023/05/25 12:25:46;;;;;;;;;;;19.50;78.50;;;;;;5083183;28;19924;-81
2023/05/25 12:28:13;;;;;;;;;;;19.40;73.80;;;;;;5084399;28;19968;-80
2023/05/25 12:30:39;;;;;;;;;;;19.30;72.90;;;;;;5050956;28;19957;-81
2023/05/25 12:33:06;;;;;;;;;;;19.40;71.10;;;;;;5077861;28;20022;-80
2023/05/25 12:35:47;;;;;;;;;;;19.40;71.70;;;;;;5066580;28;19946;-79
2023/05/25 12:38:14;;;;;;;;;;;19.40;72.70;;;;;;5066302;28;19924;-79
2023/05/25 12:40:40;;;;;;;;;;;19.40;75.20;;;;;;5067830;28;20430;-79
2023/05/25 12:43:06;;;;;;;;;;;19.30;73.70;;;;;;5082973;28;20303;-80
2023/05/25 12:45:32;;;;;;;;;;;19.20;73.20;;;;;;5062501;28;19924;-79
2023/05/25 12:47:57;;;;;;;;;;;19.10;72.70;;;;;;5073112;28;19942;-79
2023/05/25 12:50:23;;;;;;;;;;;19.10;74.00;;;;;;5067308;28;19935;-79
2023/05/25 12:52:48;;;;;;;;;;;19.30;75.40;;;;;;5066915;28;20279;-79
2023/05/25 12:55:17;;;;;;;;;;;19.40;74.10;;;;;;5066475;28;19987;-79
2023/05/25 12:57:43;;;;;;;;;;;19.50;75.50;;;;;;5067869;28;20240;-79
2023/05/25 13:00:09;;;;;;;;;;;19.40;73.60;;;;;;5082469;28;20405;-79
2023/05/25 13:02:34;;;;;;;;;;;19.30;75.20;;;;;;5066617;28;19989;-79
2023/05/25 13:05:00;;;;;;;;;;;19.40;71.40;;;;;;5052469;28;19931;-79
2023/05/25 13:07:26;;;;;;;;;;;19.50;71.40;;;;;;5080042;28;19971;-79
2023/05/25 13:09:52;;;;;;;;;;;19.30;72.60;;;;;;5047594;28;20465;-79
2023/05/25 13:12:18;;;;;;;;;;;19.10;74.10;;;;;;5090512;28;19931;-80
2023/05/25 13:14:44;;;;;;;;;;;19.20;74.80;;;;;;5063074;28;19928;-79
2023/05/25 13:17:09;;;;;;;;;;;19.30;73.20;;;;;;5048988;28;19971;-79
2023/05/25 13:19:35;;;;;;;;;;;19.30;71.30;;;;;;5083830;28;19924;-80
2023/05/25 13:22:00;;;;;;;;;;;19.30;73.70;;;;;;5048853;28;19928;-79
2023/05/25 13:24:26;;;;;;;;;;;19.30;74.30;;;;;;5117529;28;19924;-80
2023/05/25 13:26:52;;;;;;;;;;;19.20;75.10;;;;;;5061035;28;20015;-79
2023/05/25 13:29:18;;;;;;;;;;;19.20;74.60;;;;;;5073316;28;19935;-79
2023/05/25 13:31:43;;;;;;;;;;;19.20;75.60;;;;;;5117017;28;19928;-79
2023/05/25 13:34:09;;;;;;;;;;;19.10;73.30;;;;;;5049935;28;19925;-80
2023/05/25 13:36:35;;;;;;;;;;;19.20;76.00;;;;;;5100285;28;19995;-79
2023/05/25 13:39:01;;;;;;;;;;;19.20;73.70;;;;;;5048240;28;19924;-80
2023/05/25 13:41:27;;;;;;;;;;;19.20;71.70;;;;;;5059009;28;19931;-80
2023/05/25 13:43:52;;;;;;;;;;;19.20;71.50;;;;;;5081945;28;19924;-80
2023/05/25 13:46:18;;;;;;;;;;;19.00;71.20;;;;;;5065795;28;19977;-79
2023/05/25 13:48:47;;;;;;;;;;;18.80;72.50;;;;;;5061852;28;20033;-79
2023/05/25 13:51:13;;;;;;;;;;;18.80;73.60;;;;;;5081980;28;19928;-79
2023/05/25 13:53:39;;;;;;;;;;;18.90;75.20;;;;;;5066407;28;20353;-79
2023/05/25 13:56:05;;;;;;;;;;;18.80;73.00;;;;;;5048606;28;19928;-80
2023/05/25 13:58:30;;;;;;;;;;;18.90;74.10;;;;;;5076013;28;19932;-80
2023/05/25 14:00:56;;;;;;;;;;;18.80;72.90;;;;;;5064854;28;20371;-80
2023/05/25 14:03:21;;;;;;;;;;;18.80;74.90;;;;;;5053183;28;19924;-80
2023/05/25 14:05:47;;;;;;;;;;;18.80;74.30;;;;;;5095964;28;19931;-80
2023/05/25 14:08:13;;;;;;;;;;;18.90;75.30;;;;;;5050631;28;19935;-81
2023/05/25 14:10:38;;;;;;;;;;;19.00;72.10;;;;;;5061503;28;19928;-80
2023/05/25 14:13:04;;;;;;;;;;;18.90;71.50;;;;;;5060688;28;20439;-79
2023/05/25 14:15:29;;;;;;;;;;;18.90;72.40;;;;;;5074862;28;19931;-81
2023/05/25 14:17:55;;;;;;;;;;;18.90;73.70;;;;;;5069356;28;19928;-80